Kartal, Turkey
Current Conditions -  °F | °C
As of 7:20 AM on Monday 20 Oct 2014 (Local Time) from LTFJ Reporting Station
Clear Clear  
Wind Chill: 42°   Ceiling: Unl
Heat Index: 45°   Visibility: 6mi
Dew Point: 39°   Wind: 5mph
Humidity: 81%   Direction: 60°ENE
Pressure: 30.24"   Gusts: NA
Location:  40.9°N, 29.19°E
Report Text: LTFJ 200420Z 06004KT CAVOK 07/04 Q1024 NOSIG
Loading
Personal Weather Stations






























Interactive Weather Map
Tropical Storm Tracking
New forecast layout! Learn more

10-Day Weather Forecast

Advertisements
Track Severe Weather on mobile